createdAt,value
2017-10-30T00:00:44.598Z,96.80
2017-10-30T00:03:11.154Z,96.70
2017-10-30T00:05:38.364Z,96.80
2017-10-30T00:08:05.602Z,96.90
2017-10-30T00:10:32.158Z,96.90
2017-10-30T00:12:59.435Z,96.80
2017-10-30T00:15:26.708Z,96.80
2017-10-30T00:17:53.266Z,96.80
2017-10-30T00:20:20.542Z,96.80
2017-10-30T00:22:47.099Z,96.80
2017-10-30T00:25:14.258Z,96.50
2017-10-30T00:27:41.446Z,96.50
2017-10-30T00:30:08.654Z,96.50
2017-10-30T00:32:35.086Z,96.50
2017-10-30T00:35:01.630Z,96.50
2017-10-30T00:37:28.783Z,96.40
2017-10-30T00:39:55.226Z,96.30
2017-10-30T00:42:21.695Z,96.40
2017-10-30T00:44:48.171Z,96.70
2017-10-30T00:47:14.645Z,96.50
2017-10-30T00:49:41.185Z,96.50
2017-10-30T00:52:08.459Z,96.60
2017-10-30T00:54:35.735Z,96.70
2017-10-30T00:57:02.293Z,96.70
2017-10-30T00:59:29.483Z,96.70
2017-10-30T01:01:56.541Z,96.70
2017-10-30T01:04:23.093Z,96.70
2017-10-30T01:06:50.366Z,96.80
2017-10-30T01:09:17.642Z,96.80
2017-10-30T01:11:44.826Z,96.70
2017-10-30T01:14:11.265Z,96.70
2017-10-30T01:16:37.740Z,96.70
2017-10-30T01:19:04.287Z,96.70
2017-10-30T01:21:30.843Z,96.80
2017-10-30T01:23:57.282Z,96.80
2017-10-30T01:26:23.918Z,96.90
2017-10-30T01:28:51.154Z,96.80
2017-10-30T01:31:17.934Z,96.80
2017-10-30T01:33:45.438Z,96.90
2017-10-30T01:36:12.284Z,96.90
2017-10-30T01:38:39.515Z,96.90
2017-10-30T01:41:06.189Z,96.90
2017-10-30T01:43:32.983Z,97.00
2017-10-30T01:45:59.819Z,96.90
2017-10-30T01:48:26.485Z,96.90
2017-10-30T01:50:53.443Z,96.90
2017-10-30T01:53:20.543Z,96.80
2017-10-30T01:55:47.042Z,96.90
2017-10-30T01:58:13.622Z,96.90
2017-10-30T02:00:40.425Z,97.00
2017-10-30T02:03:07.288Z,97.00
2017-10-30T02:05:35.692Z,97.10
2017-10-30T02:08:03.534Z,97.10
2017-10-30T02:10:30.144Z,97.00
2017-10-30T02:12:57.491Z,96.70
2017-10-30T02:15:24.280Z,96.60
2017-10-30T02:17:52.712Z,96.90
2017-10-30T02:20:19.496Z,96.90
2017-10-30T02:22:46.728Z,96.70
2017-10-30T02:25:13.340Z,96.70
2017-10-30T02:27:39.874Z,96.80
2017-10-30T02:30:07.264Z,97.40
2017-10-30T02:32:34.282Z,97.00
2017-10-30T02:35:01.622Z,97.40
2017-10-30T02:37:29.087Z,97.40
2017-10-30T02:39:56.727Z,97.60
2017-10-30T02:42:24.025Z,97.70
2017-10-30T02:44:50.685Z,97.70
2017-10-30T02:47:17.906Z,97.80
2017-10-30T02:49:44.645Z,97.80
2017-10-30T02:52:12.855Z,98.10
2017-10-30T02:54:39.371Z,97.80
2017-10-30T02:57:05.952Z,97.70
2017-10-30T02:59:33.342Z,97.60
2017-10-30T03:02:00.131Z,97.50
2017-10-30T03:04:26.997Z,97.50
2017-10-30T03:06:53.580Z,97.50
2017-10-30T03:09:20.997Z,97.30
2017-10-30T03:11:47.554Z,97.70
2017-10-30T03:14:15.078Z,97.90
2017-10-30T03:16:41.795Z,97.90
2017-10-30T03:19:08.907Z,97.90
2017-10-30T03:21:35.633Z,97.70
2017-10-30T03:24:02.156Z,97.70
2017-10-30T03:26:30.526Z,97.70
2017-10-30T03:28:58.811Z,97.80
2017-10-30T03:31:25.286Z,97.70
2017-10-30T03:33:51.964Z,97.90
2017-10-30T03:36:18.429Z,97.80
2017-10-30T03:38:45.020Z,97.90
2017-10-30T03:41:11.573Z,97.90
2017-10-30T03:43:38.136Z,98.10
2017-10-30T03:46:05.368Z,98.10
2017-10-30T03:48:32.070Z,98.10
2017-10-30T03:50:59.757Z,98.20
2017-10-30T03:53:26.918Z,98.20
2017-10-30T03:55:53.582Z,98.20
2017-10-30T03:58:21.249Z,98.20
2017-10-30T04:00:47.789Z,97.90
2017-10-30T04:03:15.058Z,97.90
2017-10-30T04:05:41.760Z,97.90
2017-10-30T04:08:09.181Z,97.90
2017-10-30T04:10:36.830Z,97.40
2017-10-30T04:13:03.738Z,97.30
2017-10-30T04:15:30.452Z,97.40
2017-10-30T04:17:57.261Z,97.30
2017-10-30T04:20:24.187Z,97.20
2017-10-30T04:22:51.434Z,97.30
2017-10-30T04:25:18.218Z,97.40
2017-10-30T04:27:44.930Z,97.40
2017-10-30T04:30:11.807Z,97.40
2017-10-30T04:32:38.407Z,97.30
2017-10-30T04:35:04.973Z,97.30
2017-10-30T04:37:31.543Z,97.40
2017-10-30T04:39:59.157Z,97.30
2017-10-30T04:42:26.641Z,97.30
2017-10-30T04:44:54.417Z,97.20
2017-10-30T04:47:21.129Z,97.20
2017-10-30T04:49:47.688Z,97.30
2017-10-30T04:52:15.899Z,96.70
2017-10-30T04:54:42.428Z,96.70
2017-10-30T04:57:09.112Z,96.70
2017-10-30T04:59:35.897Z,96.60
2017-10-30T05:02:02.529Z,97.00
2017-10-30T05:04:29.083Z,96.60
2017-10-30T05:06:55.712Z,96.60
2017-10-30T05:09:22.459Z,96.60
2017-10-30T05:11:49.147Z,96.60
2017-10-30T05:14:16.213Z,96.50
2017-10-30T05:16:43.511Z,96.40
2017-10-30T05:19:10.254Z,96.30
2017-10-30T05:21:36.977Z,96.40
2017-10-30T05:24:04.314Z,96.30
2017-10-30T05:26:30.871Z,96.30
2017-10-30T05:28:57.635Z,96.20
2017-10-30T05:31:24.307Z,96.30
2017-10-30T05:33:54.151Z,96.30
2017-10-30T05:36:20.749Z,96.30
2017-10-30T05:38:47.865Z,96.20
2017-10-30T05:41:14.717Z,96.10
2017-10-30T05:43:41.999Z,96.20
2017-10-30T05:46:09.223Z,96.30
2017-10-30T05:48:35.748Z,96.20
2017-10-30T05:51:02.249Z,96.40
2017-10-30T05:53:30.238Z,96.50
2017-10-30T05:55:58.177Z,96.50
2017-10-30T05:58:24.650Z,96.50
2017-10-30T06:00:51.096Z,96.50
2017-10-30T06:03:17.635Z,96.50
2017-10-30T06:05:44.130Z,96.50
2017-10-30T06:08:10.650Z,96.40
2017-10-30T06:10:37.107Z,96.50
2017-10-30T06:13:03.664Z,96.50
2017-10-30T06:15:30.114Z,96.50
2017-10-30T06:17:57.396Z,96.60
2017-10-30T06:20:23.953Z,96.60
2017-10-30T06:22:50.511Z,96.60
2017-10-30T06:25:17.789Z,96.80
2017-10-30T06:27:44.343Z,96.80
2017-10-30T06:30:11.622Z,96.80
2017-10-30T06:32:38.176Z,96.80
2017-10-30T06:35:06.272Z,96.80
2017-10-30T06:37:32.749Z,96.80
2017-10-30T06:39:59.284Z,96.90
2017-10-30T06:42:25.781Z,96.80
2017-10-30T06:44:52.299Z,96.70
2017-10-30T06:47:18.858Z,97.10
2017-10-30T06:49:45.343Z,96.80
2017-10-30T06:52:11.974Z,96.70
2017-10-30T06:54:38.532Z,96.40
2017-10-30T06:57:05.809Z,96.60
2017-10-30T06:59:33.142Z,96.70
2017-10-30T07:01:59.622Z,96.60
2017-10-30T07:04:26.915Z,96.60
2017-10-30T07:06:54.083Z,96.30
2017-10-30T07:09:21.423Z,96.20
2017-10-30T07:11:49.373Z,96.20
2017-10-30T07:14:16.020Z,96.60
2017-10-30T07:16:42.673Z,96.10
2017-10-30T07:19:09.947Z,96.00
2017-10-30T07:21:36.510Z,96.00
2017-10-30T07:24:03.067Z,96.20
2017-10-30T07:26:29.623Z,96.30
2017-10-30T07:28:56.901Z,96.20
2017-10-30T07:31:23.360Z,96.10
2017-10-30T07:33:49.913Z,96.20
2017-10-30T07:36:17.121Z,96.50
2017-10-30T07:38:43.643Z,96.50
2017-10-30T07:41:10.212Z,96.30
2017-10-30T07:43:36.698Z,96.10
2017-10-30T07:46:03.162Z,96.20
2017-10-30T07:48:29.773Z,96.20
2017-10-30T07:50:57.049Z,96.50
2017-10-30T07:53:24.347Z,96.10
2017-10-30T07:55:50.982Z,96.00
2017-10-30T07:58:17.542Z,95.90
2017-10-30T08:00:44.204Z,96.00
2017-10-30T08:03:10.736Z,96.00
2017-10-30T08:05:37.524Z,96.10
2017-10-30T08:08:04.185Z,96.20
2017-10-30T08:10:30.660Z,96.10
2017-10-30T08:12:57.403Z,95.90
2017-10-30T08:15:23.973Z,95.90
2017-10-30T08:17:50.591Z,95.90
2017-10-30T08:20:17.875Z,95.80
2017-10-30T08:22:44.562Z,95.80
2017-10-30T08:25:11.321Z,95.60
2017-10-30T08:27:38.613Z,95.70
2017-10-30T08:30:05.105Z,95.70
2017-10-30T08:32:31.653Z,95.80
2017-10-30T08:34:58.271Z,95.60
2017-10-30T08:37:24.781Z,95.50
2017-10-30T08:39:51.493Z,95.40
2017-10-30T08:42:18.149Z,95.20
2017-10-30T08:44:44.711Z,95.20
2017-10-30T08:47:11.383Z,95.10
2017-10-30T08:49:38.032Z,94.90
2017-10-30T08:52:04.582Z,94.60
2017-10-30T08:54:31.873Z,94.40
2017-10-30T08:56:58.391Z,94.40
2017-10-30T08:59:25.145Z,94.40
2017-10-30T09:01:51.635Z,94.40
2017-10-30T09:04:18.901Z,94.70
2017-10-30T09:06:46.170Z,94.90
2017-10-30T09:09:13.464Z,94.90
2017-10-30T09:11:40.123Z,94.90
2017-10-30T09:14:07.393Z,94.50
2017-10-30T09:16:34.775Z,94.30
2017-10-30T09:19:02.153Z,93.80
2017-10-30T09:21:28.779Z,93.70
2017-10-30T09:23:55.419Z,93.50
2017-10-30T09:26:22.580Z,93.40
2017-10-30T09:28:49.204Z,93.20
2017-10-30T09:31:16.414Z,93.60
2017-10-30T09:33:43.037Z,93.60
2017-10-30T09:36:10.415Z,91.80
2017-10-30T09:38:36.952Z,91.70
2017-10-30T09:41:03.531Z,91.20
2017-10-30T09:43:30.111Z,90.70
2017-10-30T09:45:56.591Z,90.20
2017-10-30T09:48:23.205Z,89.70
2017-10-30T09:50:49.774Z,87.90
2017-10-30T09:53:16.315Z,87.10
2017-10-30T09:55:43.699Z,87.40
2017-10-30T09:58:11.077Z,86.10
2017-10-30T10:00:38.463Z,84.30
2017-10-30T10:03:04.989Z,84.30
2017-10-30T10:05:31.506Z,83.50
2017-10-30T10:07:58.130Z,83.20
2017-10-30T10:10:24.687Z,81.90
2017-10-30T10:12:52.066Z,81.50
2017-10-30T10:15:18.645Z,81.50
2017-10-30T10:17:45.241Z,81.00
2017-10-30T10:20:11.747Z,80.10
2017-10-30T10:22:38.298Z,79.10
2017-10-30T10:25:05.570Z,80.10
2017-10-30T10:27:32.840Z,80.00
2017-10-30T10:30:00.114Z,80.70
2017-10-30T10:32:27.385Z,78.70
2017-10-30T10:34:54.770Z,78.70
2017-10-30T10:37:22.084Z,76.90
2017-10-30T10:39:48.716Z,76.80
2017-10-30T10:42:15.366Z,75.40
2017-10-30T10:44:42.606Z,75.10
2017-10-30T10:47:09.119Z,75.00
2017-10-30T10:49:35.758Z,73.60
2017-10-30T10:52:02.216Z,71.60
2017-10-30T10:54:29.491Z,68.10
2017-10-30T10:56:56.047Z,68.00
2017-10-30T10:59:23.298Z,67.90
2017-10-30T11:01:49.771Z,67.90
2017-10-30T11:04:16.259Z,67.60
2017-10-30T11:06:42.797Z,68.00
2017-10-30T11:09:09.455Z,68.20
2017-10-30T11:11:36.011Z,68.00
2017-10-30T11:14:03.801Z,68.20
2017-10-30T11:16:30.457Z,68.10
2017-10-30T11:18:57.748Z,68.40
2017-10-30T11:21:24.392Z,68.30
2017-10-30T11:23:51.786Z,65.50
2017-10-30T11:26:18.334Z,65.40
2017-10-30T11:28:44.824Z,65.50
2017-10-30T11:31:11.352Z,66.00
2017-10-30T11:33:37.906Z,66.50
2017-10-30T11:36:04.395Z,66.40
2017-10-30T11:38:30.902Z,66.90
2017-10-30T11:40:58.189Z,67.00
2017-10-30T11:43:25.996Z,66.90
2017-10-30T11:45:52.537Z,66.90
2017-10-30T11:48:19.019Z,66.80
2017-10-30T11:50:45.500Z,65.40
2017-10-30T11:53:11.967Z,63.50
2017-10-30T11:55:38.468Z,62.80
2017-10-30T11:58:05.000Z,60.80
2017-10-30T12:00:31.469Z,59.50
2017-10-30T12:02:58.668Z,59.60
2017-10-30T12:05:25.123Z,59.50
2017-10-30T12:07:52.269Z,58.30
2017-10-30T12:10:18.737Z,58.80
2017-10-30T12:12:45.198Z,57.80
2017-10-30T12:15:12.292Z,57.80
2017-10-30T12:17:38.918Z,58.20
2017-10-30T12:20:05.581Z,58.10
2017-10-30T12:22:32.036Z,57.00
2017-10-30T12:24:59.314Z,57.20
2017-10-30T12:27:25.779Z,57.20
2017-10-30T12:29:52.817Z,56.60
2017-10-30T12:32:19.366Z,56.00
2017-10-30T12:34:46.669Z,56.70
2017-10-30T12:37:13.929Z,57.20
2017-10-30T12:39:41.758Z,56.40
2017-10-30T12:42:08.290Z,56.40
2017-10-30T12:44:35.770Z,56.70
2017-10-30T12:47:03.247Z,57.50
2017-10-30T12:49:30.793Z,57.60
2017-10-30T12:51:57.386Z,57.20
2017-10-30T12:54:23.958Z,57.20
2017-10-30T12:56:50.710Z,57.20
2017-10-30T12:59:17.471Z,57.60
2017-10-30T13:01:44.974Z,57.70
2017-10-30T13:04:11.490Z,58.20
2017-10-30T13:06:38.791Z,58.20
2017-10-30T13:09:05.339Z,58.20
2017-10-30T13:11:32.105Z,57.70
2017-10-30T13:13:58.764Z,57.10
2017-10-30T13:16:26.141Z,56.60
2017-10-30T13:18:53.369Z,56.70
2017-10-30T13:21:20.078Z,56.70
2017-10-30T13:23:46.635Z,56.50
2017-10-30T13:26:13.498Z,54.80
2017-10-30T13:28:40.161Z,54.10
2017-10-30T13:31:07.434Z,53.70
2017-10-30T13:33:33.961Z,53.70
2017-10-30T13:36:00.476Z,53.90
2017-10-30T13:38:27.319Z,54.60
2017-10-30T13:40:54.684Z,54.90
2017-10-30T13:43:21.901Z,54.90
2017-10-30T13:45:48.422Z,54.90
2017-10-30T13:48:15.701Z,55.80
2017-10-30T13:50:42.253Z,55.80
2017-10-30T13:53:09.492Z,56.70
2017-10-30T13:55:35.967Z,56.60
2017-10-30T13:58:02.516Z,57.70
2017-10-30T14:00:29.817Z,57.90
2017-10-30T14:02:57.051Z,57.50
2017-10-30T14:05:24.263Z,57.50
2017-10-30T14:07:51.640Z,57.60
2017-10-30T14:10:20.142Z,57.60
2017-10-30T14:12:46.701Z,58.20
2017-10-30T14:15:13.260Z,57.60
2017-10-30T14:17:40.533Z,57.60
2017-10-30T14:20:06.977Z,57.40
2017-10-30T14:22:34.263Z,58.60
2017-10-30T14:25:01.642Z,58.80
2017-10-30T14:27:28.304Z,58.80
2017-10-30T14:29:54.860Z,58.40
2017-10-30T14:32:22.341Z,58.40
2017-10-30T14:34:49.000Z,58.40
2017-10-30T14:37:16.306Z,58.30
2017-10-30T14:39:43.035Z,58.30
2017-10-30T14:42:10.418Z,58.90
2017-10-30T14:44:36.945Z,58.80
2017-10-30T14:47:04.148Z,59.20
2017-10-30T14:49:31.623Z,59.60
2017-10-30T14:51:58.182Z,59.80
2017-10-30T14:54:25.531Z,60.00
2017-10-30T14:56:52.120Z,60.00
2017-10-30T14:59:18.781Z,60.80
2017-10-30T15:01:45.361Z,61.10
2017-10-30T15:04:11.923Z,61.10
2017-10-30T15:06:38.555Z,61.30
2017-10-30T15:09:05.215Z,61.60
2017-10-30T15:11:31.849Z,62.00
2017-10-30T15:13:58.437Z,61.90
2017-10-30T15:16:24.969Z,62.10
2017-10-30T15:18:52.608Z,62.30
2017-10-30T15:21:19.442Z,62.80
2017-10-30T15:23:46.816Z,63.40
2017-10-30T15:26:13.483Z,63.40
2017-10-30T15:28:40.138Z,63.80
2017-10-30T15:31:07.618Z,64.20
2017-10-30T15:33:34.276Z,64.10
2017-10-30T15:36:01.552Z,64.90
2017-10-30T15:38:28.178Z,64.90
2017-10-30T15:40:55.592Z,65.80
2017-10-30T15:43:22.761Z,65.70
2017-10-30T15:45:49.241Z,66.00
2017-10-30T15:48:15.896Z,67.40
2017-10-30T15:50:42.550Z,67.20
2017-10-30T15:53:09.087Z,67.80
2017-10-30T15:55:37.277Z,68.50
2017-10-30T15:58:04.699Z,69.00
2017-10-30T16:00:31.333Z,68.90
2017-10-30T16:02:59.013Z,69.20
2017-10-30T16:05:25.501Z,69.60
2017-10-30T16:07:52.556Z,70.00
2017-10-30T16:10:19.101Z,70.40
2017-10-30T16:12:46.386Z,70.50
2017-10-30T16:15:14.157Z,70.30
2017-10-30T16:17:41.636Z,70.20
2017-10-30T16:20:08.910Z,70.40
2017-10-30T16:22:37.013Z,70.40
2017-10-30T16:25:03.664Z,70.70
2017-10-30T16:27:30.845Z,71.50
2017-10-30T16:29:58.011Z,71.70
2017-10-30T16:32:26.665Z,72.40
2017-10-30T16:34:53.956Z,73.30
2017-10-30T16:37:20.545Z,73.00
2017-10-30T16:39:47.310Z,73.30
2017-10-30T16:42:13.949Z,73.50
2017-10-30T16:44:40.447Z,73.50
2017-10-30T16:47:07.393Z,73.50
2017-10-30T16:49:34.872Z,74.10
2017-10-30T16:52:01.643Z,74.10
2017-10-30T16:54:31.001Z,74.50
2017-10-30T16:56:58.359Z,75.20
2017-10-30T16:59:25.019Z,75.10
2017-10-30T17:01:51.760Z,75.50
2017-10-30T17:04:18.620Z,75.90
2017-10-30T17:06:45.998Z,76.20
2017-10-30T17:09:13.479Z,76.60
2017-10-30T17:11:40.636Z,76.80
2017-10-30T17:14:07.937Z,77.20
2017-10-30T17:16:34.483Z,77.10
2017-10-30T17:19:01.758Z,77.80
2017-10-30T17:21:29.029Z,78.10
2017-10-30T17:24:12.941Z,78.60
2017-10-30T17:26:39.388Z,78.50
2017-10-30T17:29:06.195Z,78.90
2017-10-30T17:31:33.792Z,79.70
2017-10-30T17:34:00.336Z,79.70
2017-10-30T17:36:26.896Z,80.10
2017-10-30T17:38:53.553Z,80.40
2017-10-30T17:41:20.026Z,80.60
2017-10-30T17:43:46.513Z,80.90
2017-10-30T17:46:12.956Z,81.00
2017-10-30T17:48:39.586Z,81.00
2017-10-30T17:51:06.532Z,81.50
2017-10-30T17:53:33.623Z,81.80
2017-10-30T17:56:00.280Z,81.90
2017-10-30T17:58:27.558Z,82.40
2017-10-30T18:00:54.199Z,82.40
2017-10-30T18:03:20.689Z,82.50
2017-10-30T18:05:47.639Z,82.00
2017-10-30T18:08:15.547Z,83.30
2017-10-30T18:10:42.196Z,83.30
2017-10-30T18:13:09.564Z,83.40
2017-10-30T18:15:37.657Z,83.50
2017-10-30T18:18:05.445Z,83.40
2017-10-30T18:20:31.984Z,83.60
2017-10-30T18:22:59.775Z,83.40
2017-10-30T18:25:27.075Z,83.20
2017-10-30T18:27:54.751Z,83.20
2017-10-30T18:30:21.381Z,82.90
2017-10-30T18:32:49.502Z,82.80
2017-10-30T18:35:16.978Z,82.70
2017-10-30T18:37:43.675Z,82.50
2017-10-30T18:40:10.912Z,82.10
2017-10-30T18:42:39.429Z,81.90
2017-10-30T18:45:06.587Z,81.90
2017-10-30T18:47:33.252Z,82.00
2017-10-30T18:49:59.789Z,81.80
2017-10-30T18:52:27.386Z,81.80
2017-10-30T18:54:53.870Z,81.80
2017-10-30T18:57:20.401Z,81.80
2017-10-30T18:59:47.675Z,81.70
2017-10-30T19:02:14.236Z,81.60
2017-10-30T19:04:41.466Z,81.80
2017-10-30T19:07:08.270Z,81.60
2017-10-30T19:09:34.832Z,81.60
2017-10-30T19:12:01.390Z,81.60
2017-10-30T19:14:28.048Z,81.50
2017-10-30T19:16:55.259Z,81.50
2017-10-30T19:19:23.110Z,81.50
2017-10-30T19:21:50.486Z,81.90
2017-10-30T19:24:17.897Z,81.80
2017-10-30T19:26:44.421Z,82.30
2017-10-30T19:29:11.695Z,82.80
2017-10-30T19:31:38.257Z,82.70
2017-10-30T19:34:04.812Z,83.30
2017-10-30T19:36:31.236Z,83.30
2017-10-30T19:38:57.716Z,83.50
2017-10-30T19:41:24.283Z,84.00
2017-10-30T19:43:51.557Z,84.50
2017-10-30T19:46:18.934Z,84.70
2017-10-30T19:48:45.370Z,84.70
2017-10-30T19:51:11.847Z,84.90
2017-10-30T19:53:38.377Z,85.30
2017-10-30T19:56:04.962Z,85.50
2017-10-30T19:58:31.522Z,86.00
2017-10-30T20:00:57.988Z,86.30
2017-10-30T20:03:24.847Z,86.80
2017-10-30T20:05:57.267Z,87.50
2017-10-30T20:08:29.801Z,88.30
2017-10-30T20:11:02.957Z,89.10
2017-10-30T20:13:33.167Z,90.20
2017-10-30T20:16:00.442Z,90.50
2017-10-30T20:18:27.941Z,90.70
2017-10-30T20:20:54.585Z,90.70
2017-10-30T20:23:21.210Z,90.90
2017-10-30T20:25:47.756Z,91.10
2017-10-30T20:28:14.361Z,91.20
2017-10-30T20:30:40.818Z,91.30
2017-10-30T20:33:07.476Z,91.40
2017-10-30T20:35:34.342Z,91.60
2017-10-30T20:38:02.562Z,92.00
2017-10-30T20:40:29.606Z,92.00
2017-10-30T20:42:56.177Z,92.10
2017-10-30T20:45:22.826Z,92.30
2017-10-30T20:47:50.208Z,92.80
2017-10-30T20:50:16.862Z,92.70
2017-10-30T20:52:44.349Z,92.90
2017-10-30T20:55:10.811Z,93.10
2017-10-30T20:57:37.358Z,93.30
2017-10-30T21:00:03.928Z,93.40
2017-10-30T21:02:30.388Z,93.60
2017-10-30T21:04:56.930Z,93.50
2017-10-30T21:07:24.821Z,93.60
2017-10-30T21:09:52.708Z,93.80
2017-10-30T21:12:19.237Z,93.90
2017-10-30T21:14:45.723Z,93.60
2017-10-30T21:17:12.287Z,93.70
2017-10-30T21:19:39.553Z,93.70
2017-10-30T21:22:06.931Z,93.80
2017-10-30T21:24:33.899Z,93.90
2017-10-30T21:27:01.170Z,93.90
2017-10-30T21:29:28.549Z,93.90
2017-10-30T21:31:55.822Z,94.10
2017-10-30T21:34:22.446Z,94.10
2017-10-30T21:36:49.347Z,94.10
2017-10-30T21:39:16.399Z,94.20
2017-10-30T21:41:43.694Z,94.20
2017-10-30T21:44:10.251Z,94.20
2017-10-30T21:46:37.421Z,94.10
2017-10-30T21:49:04.041Z,94.20
2017-10-30T21:51:30.540Z,94.20
2017-10-30T21:53:57.099Z,94.20
2017-10-30T21:56:23.591Z,94.40
2017-10-30T21:58:50.318Z,94.50
2017-10-30T22:01:16.980Z,94.50
2017-10-30T22:03:43.489Z,94.40
2017-10-30T22:06:09.979Z,94.40
2017-10-30T22:08:37.266Z,94.40
2017-10-30T22:11:04.749Z,94.50
2017-10-30T22:13:31.597Z,94.40
2017-10-30T22:15:58.797Z,94.70
2017-10-30T22:18:25.314Z,94.60
2017-10-30T22:20:53.008Z,94.70
2017-10-30T22:23:20.400Z,94.70
2017-10-30T22:25:47.664Z,94.70
2017-10-30T22:28:14.944Z,94.70
2017-10-30T22:30:42.430Z,94.80
2017-10-30T22:33:09.092Z,94.80
2017-10-30T22:35:36.366Z,94.80
2017-10-30T22:38:03.760Z,94.80
2017-10-30T22:40:30.300Z,95.20
2017-10-30T22:42:58.207Z,94.90
2017-10-30T22:45:24.852Z,94.90
2017-10-30T22:47:51.409Z,94.90
2017-10-30T22:50:17.965Z,95.00
2017-10-30T22:52:45.175Z,95.00
2017-10-30T22:55:11.796Z,95.00
2017-10-30T22:57:39.078Z,95.00
2017-10-30T23:00:05.733Z,95.00
2017-10-30T23:02:32.159Z,95.30
2017-10-30T23:05:00.179Z,95.00
2017-10-30T23:07:26.594Z,95.00
2017-10-30T23:09:53.093Z,94.90
2017-10-30T23:12:20.777Z,94.90
2017-10-30T23:14:47.334Z,94.80
2017-10-30T23:17:13.893Z,94.90
2017-10-30T23:19:41.048Z,95.00
2017-10-30T23:22:08.224Z,95.00
2017-10-30T23:24:35.510Z,95.00
2017-10-30T23:27:02.888Z,94.90
2017-10-30T23:29:29.446Z,94.90
2017-10-30T23:31:56.591Z,95.00
2017-10-30T23:34:23.178Z,95.10
2017-10-30T23:36:49.735Z,95.10
2017-10-30T23:39:16.925Z,95.30
2017-10-30T23:41:43.517Z,95.20
2017-10-30T23:44:09.965Z,95.30
2017-10-30T23:46:36.401Z,95.30
2017-10-30T23:49:02.837Z,95.40
2017-10-30T23:51:29.279Z,95.50
2017-10-30T23:53:56.566Z,95.50
2017-10-30T23:56:23.123Z,95.50
2017-10-30T23:58:50.399Z,95.50
